Pinos Puente, Spain
Current Conditions -  °F | °C
As of 8:30 PM on Tuesday 21 Oct 2014 (Local Time) from LEGR Reporting Station
Clear Clear  
Wind Chill: 72°   Ceiling: Unl
Heat Index: 72°   Visibility: 6mi
Dew Point: 46°   Wind: 0mph
Humidity: 41%   Direction: NA
Pressure: 30.3"   Gusts: NA
Location:  37.25°N, 3.75°W
Report Text: LEGR 211830Z 00000KT CAVOK 22/08 Q1026
Loading
Personal Weather Stations






























Interactive Weather Map New forecast layout! Learn more

10-Day Weather Forecast

Advertisements
Track Severe Weather on mobile